Time;durP1;ratioP1;P1;durP2;ratioP2;P2;SDS_P1;SDS_P2;PMS_P1;PMS_P2;Temp;Humidity;BMP_temperature;BMP_pressure;BME280_temperature;BME280_humidity;BME280_pressure;Samples;Min_cycle;Max_cycle;Signal;HPM_P1;HPM_P2
2023/01/18 00:01:46;;;;;;;1.13;0.40;;;8.20;87.90;;;;;;5037463;28;20535;-75
2023/01/18 00:04:12;;;;;;;1.20;0.30;;;8.20;88.40;;;;;;5042341;28;20106;-76
2023/01/18 00:06:37;;;;;;;1.13;0.40;;;8.10;88.10;;;;;;5036621;28;20070;-76
2023/01/18 00:09:03;;;;;;;1.58;0.30;;;8.20;88.10;;;;;;5041823;28;20040;-76
2023/01/18 00:11:29;;;;;;;1.52;0.50;;;8.10;88.20;;;;;;5060534;28;20100;-75
2023/01/18 00:13:55;;;;;;;1.80;0.20;;;8.00;88.60;;;;;;5043850;28;20052;-76
2023/01/18 00:16:21;;;;;;;0.93;0.20;;;8.10;88.50;;;;;;5046882;28;20056;-76
2023/01/18 00:18:56;;;;;;;1.63;0.30;;;8.00;88.80;;;;;;5042250;28;20030;-76
2023/01/18 00:21:23;;;;;;;0.93;0.20;;;8.00;88.90;;;;;;5031510;28;20044;-76
2023/01/18 00:23:49;;;;;;;1.58;0.32;;;8.00;89.20;;;;;;5047587;28;20025;-76
2023/01/18 00:26:15;;;;;;;1.88;0.40;;;8.00;89.60;;;;;;5049039;28;20020;-75
2023/01/18 00:28:42;;;;;;;1.02;0.25;;;8.10;89.20;;;;;;5044584;28;20022;-75
2023/01/18 00:31:15;;;;;;;;;;;7.90;89.30;;;;;;5049815;28;20155;-75
2023/01/18 00:33:49;;;;;;;0.68;0.28;;;7.90;89.50;;;;;;5043287;28;20409;-76
2023/01/18 00:36:15;;;;;;;2.38;0.20;;;7.80;89.80;;;;;;5042475;28;20039;-76
2023/01/18 00:38:42;;;;;;;0.57;0.20;;;7.80;90.00;;;;;;5045997;28;20049;-76
2023/01/18 00:41:07;;;;;;;1.35;0.40;;;7.80;90.10;;;;;;5047169;28;20034;-77
2023/01/18 00:43:39;;;;;;;1.25;0.30;;;7.80;90.20;;;;;;5048528;28;20026;-75
2023/01/18 00:46:06;;;;;;;1.88;0.22;;;7.90;90.20;;;;;;5045454;28;20026;-75
2023/01/18 00:48:34;;;;;;;0.82;0.20;;;7.80;90.30;;;;;;5047927;28;20029;-75
2023/01/18 00:51:00;;;;;;;2.33;0.20;;;7.80;90.50;;;;;;5053963;28;20028;-75
2023/01/18 00:53:26;;;;;;;0.70;0.13;;;7.80;90.50;;;;;;5054810;28;20024;-75
2023/01/18 00:55:51;;;;;;;0.50;0.10;;;7.70;90.60;;;;;;5034905;28;20557;-74
2023/01/18 00:58:18;;;;;;;0.98;0.22;;;7.70;90.60;;;;;;5053039;28;20033;-75
2023/01/18 01:00:43;;;;;;;2.08;0.30;;;7.70;90.70;;;;;;5053207;28;20587;-75
2023/01/18 01:03:12;;;;;;;0.55;0.10;;;7.70;90.80;;;;;;5065464;28;20036;-75
2023/01/18 01:08:23;;;;;;;0.30;0.10;;;7.80;90.70;;;;;;5048018;28;20027;-75
2023/01/18 01:10:50;;;;;;;0.50;0.30;;;7.80;90.80;;;;;;5061782;28;20501;-75
2023/01/18 01:27:10;;;;;;;0.73;0.20;;;7.70;91.20;;;;;;5033282;28;20093;-75
2023/01/18 01:29:37;;;;;;;3.63;0.35;;;7.60;91.40;;;;;;5061057;28;20033;-76
2023/01/18 01:32:05;;;;;;;0.52;0.20;;;7.40;91.60;;;;;;5048717;28;20057;-74
2023/01/18 01:34:31;;;;;;;1.83;0.30;;;7.40;91.60;;;;;;5050191;28;20380;-75
2023/01/18 01:36:57;;;;;;;0.50;0.20;;;7.40;91.80;;;;;;5046667;28;20033;-74
2023/01/18 01:39:23;;;;;;;0.95;0.40;;;7.40;91.90;;;;;;5049031;28;20029;-74
2023/01/18 01:41:50;;;;;;;0.95;0.30;;;7.40;91.90;;;;;;5046356;28;20080;-75
2023/01/18 01:44:19;;;;;;;2.13;0.30;;;7.40;91.90;;;;;;5048075;28;20028;-75
2023/01/18 01:46:51;;;;;;;1.90;0.20;;;7.40;92.10;;;;;;5052802;28;20027;-74
2023/01/18 01:49:38;;;;;;;0.38;0.10;;;7.40;92.10;;;;;;5047217;28;20032;-75
2023/01/18 01:52:09;;;;;;;0.43;0.20;;;7.40;92.30;;;;;;5047523;28;20029;-74
2023/01/18 01:55:01;;;;;;;0.90;0.20;;;7.30;92.40;;;;;;5055118;28;20068;-75
2023/01/18 01:57:45;;;;;;;0.55;0.15;;;7.20;92.50;;;;;;5047260;28;20029;-75
2023/01/18 02:00:22;;;;;;;1.15;0.30;;;7.30;92.60;;;;;;5048212;28;20021;-76
2023/01/18 02:02:59;;;;;;;0.55;0.20;;;7.20;92.70;;;;;;5051547;28;20059;-75
2023/01/18 02:05:25;;;;;;;2.08;0.30;;;7.10;92.80;;;;;;5050196;28;20033;-75
2023/01/18 02:07:52;;;;;;;2.00;0.47;;;7.10;92.90;;;;;;5045806;28;20037;-75
2023/01/18 02:10:17;;;;;;;1.30;0.30;;;7.20;92.70;;;;;;5052339;28;20075;-75
2023/01/18 02:12:46;;;;;;;0.55;0.20;;;7.20;92.90;;;;;;5049320;28;20033;-76
2023/01/18 02:15:12;;;;;;;0.30;0.20;;;7.20;92.80;;;;;;5062779;28;20033;-76
2023/01/18 02:18:01;;;;;;;2.28;0.30;;;7.10;93.00;;;;;;5053026;28;20028;-75
2023/01/18 02:20:45;;;;;;;1.63;0.30;;;7.10;93.00;;;;;;5046422;28;20541;-74
2023/01/18 02:23:33;;;;;;;0.43;0.20;;;7.20;93.00;;;;;;5044750;28;20033;-74
2023/01/18 02:26:30;;;;;;;1.95;0.38;;;7.20;93.10;;;;;;5047803;28;20021;-75
2023/01/18 02:29:05;;;;;;;1.55;0.20;;;7.10;93.20;;;;;;5039127;28;20025;-75
2023/01/18 02:31:42;;;;;;;0.28;0.10;;;7.10;93.10;;;;;;5048069;28;20460;-75
2023/01/18 02:34:26;;;;;;;0.65;0.10;;;7.20;93.00;;;;;;5044907;28;20024;-74
2023/01/18 02:37:15;;;;;;;0.43;0.10;;;7.20;93.10;;;;;;5043094;28;20038;-74
2023/01/18 02:40:10;;;;;;;1.13;0.20;;;7.20;93.10;;;;;;5042919;28;20028;-74
2023/01/18 02:48:42;;;;;;;0.38;0.10;;;7.10;93.30;;;;;;5044827;28;20047;-75
2023/01/18 02:51:09;;;;;;;1.45;0.22;;;7.10;93.40;;;;;;5027797;28;20037;-74
2023/01/18 02:53:39;;;;;;;0.13;0.10;;;7.20;93.30;;;;;;5044546;28;20534;-75
2023/01/18 02:56:33;;;;;;;0.63;0.20;;;7.10;93.40;;;;;;5045227;28;20029;-74
2023/01/18 02:59:17;;;;;;;1.63;0.28;;;7.10;93.50;;;;;;5043473;28;23805;-74
2023/01/18 03:02:04;;;;;;;0.95;0.40;;;7.00;93.60;;;;;;5044017;28;20025;-74
2023/01/18 03:04:36;;;;;;;0.65;0.20;;;7.00;93.70;;;;;;5058717;28;20017;-75
2023/01/18 03:07:12;;;;;;;1.23;0.38;;;6.90;93.90;;;;;;5046387;28;20016;-75
2023/01/18 03:09:40;;;;;;;0.70;0.20;;;7.00;93.80;;;;;;5063746;28;20033;-75
2023/01/18 03:12:24;;;;;;;1.75;0.30;;;6.90;93.80;;;;;;5045556;28;20156;-75
2023/01/18 03:15:03;;;;;;;2.47;0.40;;;6.80;94.00;;;;;;5040072;28;20119;-74
2023/01/18 03:18:12;;;;;;;0.52;0.22;;;6.70;94.10;;;;;;5046280;28;20635;-74
2023/01/18 03:20:44;;;;;;;1.25;0.20;;;6.80;94.20;;;;;;4980402;28;20042;-75
2023/01/18 03:26:15;;;;;;;0.80;0.20;;;6.80;94.10;;;;;;5047024;28;20061;-73
2023/01/18 03:35:02;;;;;;;1.95;0.35;;;6.70;94.10;;;;;;5041597;28;20067;-75
2023/01/18 03:37:38;;;;;;;1.60;0.40;;;6.60;94.20;;;;;;5043586;28;20396;-75
2023/01/18 03:40:12;;;;;;;1.23;0.30;;;6.80;93.80;;;;;;5043148;28;20041;-75
2023/01/18 03:42:54;;;;;;;1.75;0.30;;;6.80;93.80;;;;;;5044950;28;20047;-75
2023/01/18 03:45:28;;;;;;;0.50;0.20;;;6.90;93.80;;;;;;5045970;28;20025;-74
2023/01/18 03:47:54;;;;;;;0.98;0.30;;;6.90;93.60;;;;;;5022814;28;20151;-75
2023/01/18 03:50:29;;;;;;;1.20;0.50;;;6.90;93.60;;;;;;5043942;28;20029;-75
2023/01/18 03:52:57;;;;;;;1.08;0.25;;;6.90;93.70;;;;;;5060762;28;20032;-74
2023/01/18 03:55:33;;;;;;;0.63;0.10;;;6.90;93.70;;;;;;5028052;28;20060;-74
2023/01/18 03:58:09;;;;;;;0.85;0.25;;;6.80;93.70;;;;;;5046362;28;20017;-75
2023/01/18 04:00:39;;;;;;;1.35;0.30;;;6.80;93.70;;;;;;5046547;28;20037;-75
2023/01/18 04:03:06;;;;;;;0.65;0.20;;;6.70;93.80;;;;;;5016932;28;20120;-75
2023/01/18 04:05:32;;;;;;;0.68;0.22;;;6.70;93.90;;;;;;5049290;28;20021;-74
2023/01/18 04:07:58;;;;;;;1.13;0.40;;;6.80;93.90;;;;;;5046730;28;20037;-74
2023/01/18 04:10:25;;;;;;;1.17;0.28;;;6.70;93.90;;;;;;5029282;28;20094;-74
2023/01/18 04:12:51;;;;;;;0.57;0.30;;;6.80;93.90;;;;;;5048789;28;20156;-75
2023/01/18 04:15:17;;;;;;;0.82;0.20;;;6.80;93.90;;;;;;5047676;28;20123;-75
2023/01/18 04:17:42;;;;;;;3.22;0.20;;;6.70;93.90;;;;;;5046675;28;20017;-75
2023/01/18 04:20:09;;;;;;;0.88;0.20;;;6.70;94.00;;;;;;5047804;28;20025;-74
2023/01/18 04:22:35;;;;;;;1.10;0.13;;;6.60;94.10;;;;;;5048053;28;20750;-75
2023/01/18 04:25:02;;;;;;;1.25;0.20;;;6.70;94.10;;;;;;5049856;28;20021;-74
2023/01/18 04:27:28;;;;;;;0.68;0.20;;;6.70;94.10;;;;;;5047712;28;20033;-74
2023/01/18 04:29:54;;;;;;;1.48;0.20;;;6.60;94.10;;;;;;5045799;28;20039;-74
2023/01/18 04:32:20;;;;;;;0.47;0.30;;;6.60;94.20;;;;;;5045373;28;20984;-74
2023/01/18 04:34:45;;;;;;;1.13;0.20;;;6.60;94.20;;;;;;5042762;28;20061;-75
2023/01/18 04:37:11;;;;;;;0.88;0.17;;;6.60;94.20;;;;;;5046138;28;20017;-74
2023/01/18 04:39:37;;;;;;;1.30;0.30;;;6.60;94.20;;;;;;5046811;28;20052;-75
2023/01/18 04:42:03;;;;;;;0.63;0.20;;;6.60;94.30;;;;;;5040029;28;20017;-75
2023/01/18 04:44:29;;;;;;;1.00;0.20;;;6.50;94.30;;;;;;5044824;28;20109;-74
2023/01/18 04:46:54;;;;;;;0.45;0.10;;;6.50;94.50;;;;;;5041317;28;20026;-74
2023/01/18 04:49:20;;;;;;;0.88;0.30;;;6.40;94.80;;;;;;5042384;28;20404;-73
2023/01/18 04:51:46;;;;;;;1.35;0.30;;;6.40;94.50;;;;;;5047920;28;20025;-74
2023/01/18 04:54:14;;;;;;;0.68;0.30;;;6.40;94.60;;;;;;5045611;28;20079;-74
2023/01/18 04:56:40;;;;;;;0.85;0.20;;;6.40;94.60;;;;;;5045992;28;20490;-74
2023/01/18 04:59:06;;;;;;;0.70;0.20;;;6.40;94.60;;;;;;5046922;28;20033;-75
2023/01/18 05:01:32;;;;;;;0.60;0.20;;;6.40;94.60;;;;;;5025427;28;20596;-74
2023/01/18 05:03:58;;;;;;;1.48;0.22;;;6.40;94.60;;;;;;5046709;28;20029;-74
2023/01/18 05:06:24;;;;;;;1.05;0.20;;;6.30;94.70;;;;;;5048752;28;20527;-76
2023/01/18 05:08:51;;;;;;;1.08;0.30;;;6.40;94.70;;;;;;5044951;28;20025;-74
2023/01/18 05:11:19;;;;;;;1.48;0.40;;;6.30;94.60;;;;;;5029039;28;20044;-74
2023/01/18 05:13:46;;;;;;;1.75;0.47;;;6.30;94.70;;;;;;5046476;28;20043;-74
2023/01/18 05:16:15;;;;;;;1.05;0.30;;;6.30;94.80;;;;;;5047675;28;20029;-73
2023/01/18 05:18:41;;;;;;;1.60;0.32;;;6.30;94.70;;;;;;5047523;28;20029;-76
2023/01/18 05:21:10;;;;;;;0.63;0.20;;;6.30;94.80;;;;;;5048672;28;20028;-74
2023/01/18 05:23:38;;;;;;;1.15;0.30;;;6.30;94.90;;;;;;5047034;28;20025;-74
2023/01/18 05:26:12;;;;;;;2.13;0.60;;;6.20;95.00;;;;;;5044263;28;20388;-75
2023/01/18 05:28:39;;;;;;;1.58;0.35;;;6.20;94.90;;;;;;5045691;28;20163;-74
2023/01/18 05:31:04;;;;;;;0.95;0.20;;;6.20;94.90;;;;;;5046649;28;20025;-74
2023/01/18 05:33:30;;;;;;;1.33;0.20;;;6.20;94.90;;;;;;5045243;28;20025;-74
2023/01/18 05:35:57;;;;;;;0.32;0.20;;;6.20;95.00;;;;;;5044442;28;20028;-78
2023/01/18 05:38:24;;;;;;;0.93;0.35;;;6.20;95.00;;;;;;5041927;28;20496;-74
2023/01/18 05:40:52;;;;;;;0.77;0.40;;;6.20;95.10;;;;;;5040509;28;20403;-75
2023/01/18 05:43:23;;;;;;;1.73;0.30;;;6.20;94.90;;;;;;5020519;28;20033;-73
2023/01/18 05:45:49;;;;;;;0.70;0.22;;;6.20;95.00;;;;;;5048485;28;20499;-74
2023/01/18 05:48:15;;;;;;;1.17;0.20;;;6.10;95.10;;;;;;5046210;28;20029;-74
2023/01/18 05:50:43;;;;;;;1.58;0.30;;;6.10;95.00;;;;;;5049881;28;20048;-74
2023/01/18 05:53:10;;;;;;;2.28;0.30;;;6.10;95.10;;;;;;5046179;28;20033;-75
2023/01/18 05:55:36;;;;;;;1.15;0.55;;;6.10;95.00;;;;;;5041798;28;20498;-75
2023/01/18 05:58:03;;;;;;;0.75;0.20;;;6.00;95.20;;;;;;5045262;28;20029;-74
2023/01/18 06:00:29;;;;;;;;;;;6.10;95.00;;;;;;5047246;28;20040;-74
2023/01/18 06:02:55;;;;;;;0.63;0.30;;;6.00;95.00;;;;;;5041393;28;19909;-76
2023/01/18 06:05:22;;;;;;;1.58;0.30;;;6.10;95.20;;;;;;5047855;28;20021;-75
2023/01/18 06:07:48;;;;;;;2.97;0.40;;;6.10;95.00;;;;;;5044586;28;20080;-75
2023/01/18 06:10:14;;;;;;;1.05;0.30;;;6.10;95.20;;;;;;5044495;28;20029;-75
2023/01/18 06:12:40;;;;;;;4.68;0.40;;;6.10;95.10;;;;;;5044463;28;20052;-75
2023/01/18 06:15:08;;;;;;;1.05;0.40;;;6.10;95.10;;;;;;5049858;28;20503;-75
2023/01/18 06:17:35;;;;;;;1.05;0.30;;;6.10;95.00;;;;;;5049011;28;20113;-75
2023/01/18 06:20:02;;;;;;;2.05;0.40;;;6.10;95.10;;;;;;5044958;28;20036;-76
2023/01/18 06:22:28;;;;;;;1.45;0.30;;;6.10;95.10;;;;;;5047019;28;20487;-75
2023/01/18 06:24:54;;;;;;;2.47;0.30;;;6.10;95.00;;;;;;5043966;28;20036;-74
2023/01/18 06:27:20;;;;;;;1.38;0.38;;;6.10;95.00;;;;;;5042096;28;20419;-76
2023/01/18 06:29:46;;;;;;;1.65;0.40;;;6.10;95.00;;;;;;5045327;28;20041;-75
2023/01/18 06:32:11;;;;;;;1.27;0.40;;;6.10;95.10;;;;;;5051414;28;20030;-75
2023/01/18 06:34:38;;;;;;;2.13;0.50;;;6.00;95.20;;;;;;5039595;28;20522;-75
2023/01/18 06:37:04;;;;;;;0.90;0.30;;;6.10;95.10;;;;;;5047318;28;20037;-74
2023/01/18 06:39:30;;;;;;;1.38;0.30;;;6.10;95.10;;;;;;5049764;28;20036;-75
2023/01/18 06:41:56;;;;;;;2.13;0.50;;;6.00;95.20;;;;;;5044861;28;20029;-76
2023/01/18 06:44:21;;;;;;;2.13;0.32;;;6.00;95.30;;;;;;5048541;28;20479;-75
2023/01/18 06:46:47;;;;;;;0.80;0.30;;;6.00;95.30;;;;;;5046972;28;20033;-74
2023/01/18 06:49:13;;;;;;;1.88;0.40;;;6.00;95.30;;;;;;5048527;28;20040;-74
2023/01/18 06:51:39;;;;;;;1.83;0.70;;;5.90;95.40;;;;;;5048157;28;20021;-74
2023/01/18 06:54:06;;;;;;;1.83;0.60;;;5.90;95.40;;;;;;5046198;28;20387;-75
2023/01/18 06:56:32;;;;;;;2.90;0.40;;;5.90;95.50;;;;;;5060530;28;20105;-74
2023/01/18 06:58:59;;;;;;;2.28;0.30;;;5.90;95.40;;;;;;5044990;28;20044;-75
2023/01/18 07:01:26;;;;;;;1.23;0.35;;;5.90;95.50;;;;;;5044936;28;20044;-74
2023/01/18 07:03:52;;;;;;;2.25;0.30;;;5.90;95.60;;;;;;5059983;28;20033;-76
2023/01/18 07:06:20;;;;;;;1.83;0.32;;;5.90;95.60;;;;;;5047858;28;20048;-75
2023/01/18 07:08:47;;;;;;;0.60;0.20;;;5.90;95.70;;;;;;5040659;28;20029;-75
2023/01/18 07:11:13;;;;;;;2.22;0.40;;;5.80;95.70;;;;;;5041436;28;20070;-74
2023/01/18 07:13:42;;;;;;;1.90;0.38;;;5.80;95.80;;;;;;5047545;28;20089;-75
2023/01/18 07:16:16;;;;;;;2.63;0.60;;;5.80;95.90;;;;;;5043389;28;20036;-75
2023/01/18 07:18:47;;;;;;;1.70;0.45;;;5.70;95.90;;;;;;5044028;28;20036;-74
2023/01/18 07:21:15;;;;;;;1.60;0.40;;;5.80;96.20;;;;;;5028302;28;20047;-76
2023/01/18 07:23:41;;;;;;;3.90;0.52;;;5.80;96.00;;;;;;5056352;28;20432;-74
2023/01/18 07:26:08;;;;;;;5.07;0.50;;;5.70;96.10;;;;;;5048457;28;20037;-74
2023/01/18 07:28:35;;;;;;;1.65;0.43;;;5.80;96.10;;;;;;5044503;28;20024;-75
2023/01/18 07:31:01;;;;;;;1.55;0.45;;;5.80;96.20;;;;;;5057998;28;20057;-75
2023/01/18 07:33:28;;;;;;;1.38;0.40;;;5.70;96.20;;;;;;5042692;28;20045;-75
2023/01/18 07:35:55;;;;;;;1.38;0.43;;;5.70;96.20;;;;;;5045246;28;20025;-74
2023/01/18 07:38:22;;;;;;;1.50;0.40;;;5.70;96.40;;;;;;5041888;28;20037;-74
2023/01/18 07:40:48;;;;;;;2.50;0.55;;;5.80;96.50;;;;;;5042722;28;20396;-75
2023/01/18 07:43:15;;;;;;;2.50;0.45;;;5.70;96.50;;;;;;5040382;28;20025;-74
2023/01/18 07:45:41;;;;;;;2.97;0.60;;;5.70;96.70;;;;;;5048330;28;20097;-76
2023/01/18 07:48:07;;;;;;;4.20;0.75;;;5.70;96.70;;;;;;5046568;28;20028;-75
2023/01/18 07:50:33;;;;;;;1.98;0.50;;;5.70;96.70;;;;;;5059485;28;20037;-74
2023/01/18 07:53:05;;;;;;;1.38;0.40;;;5.70;96.70;;;;;;5044051;28;20036;-74
2023/01/18 07:55:34;;;;;;;1.45;0.32;;;5.80;96.70;;;;;;5041179;28;20033;-77
2023/01/18 07:58:00;;;;;;;1.55;0.47;;;5.80;96.80;;;;;;5039827;28;20115;-75
2023/01/18 08:00:27;;;;;;;1.05;0.35;;;5.80;96.80;;;;;;5040965;28;20029;-74
2023/01/18 08:02:54;;;;;;;2.40;0.50;;;5.90;96.80;;;;;;5044515;28;20087;-74
2023/01/18 08:05:22;;;;;;;0.90;0.40;;;5.90;96.80;;;;;;5045004;28;20025;-75
2023/01/18 08:07:54;;;;;;;2.25;0.60;;;5.90;96.90;;;;;;5047173;28;20038;-77
2023/01/18 08:10:21;;;;;;;0.88;0.38;;;6.00;96.90;;;;;;5039452;28;20056;-75
2023/01/18 08:12:47;;;;;;;1.75;0.60;;;6.00;96.80;;;;;;5045143;28;20882;-76
2023/01/18 08:15:13;;;;;;;1.30;0.30;;;6.10;96.90;;;;;;5042748;28;20021;-76
2023/01/18 08:17:39;;;;;;;1.30;0.40;;;6.10;96.90;;;;;;5042485;28;20040;-76
2023/01/18 08:20:08;;;;;;;2.15;0.40;;;6.10;96.90;;;;;;5038446;28;20037;-75
2023/01/18 08:22:34;;;;;;;1.80;0.50;;;6.20;97.00;;;;;;5041029;28;20102;-74
2023/01/18 08:25:00;;;;;;;2.08;0.55;;;6.30;96.90;;;;;;5041188;28;20460;-75
2023/01/18 08:27:26;;;;;;;1.38;0.40;;;6.30;96.80;;;;;;5042646;28;20017;-76
2023/01/18 08:29:52;;;;;;;1.70;0.60;;;6.60;96.60;;;;;;5043581;28;20883;-75
2023/01/18 08:32:19;;;;;;;2.42;0.85;;;8.10;95.10;;;;;;5038883;28;20033;-76
2023/01/18 08:34:45;;;;;;;2.15;0.80;;;8.60;94.00;;;;;;5041253;28;20029;-76
2023/01/18 08:37:11;;;;;;;2.22;0.95;;;8.40;94.10;;;;;;5042862;28;20455;-75
2023/01/18 08:39:37;;;;;;;1.65;0.70;;;8.80;93.90;;;;;;5047631;28;20025;-75
2023/01/18 08:42:03;;;;;;;2.17;0.63;;;8.80;93.40;;;;;;5046855;28;20035;-75
2023/01/18 08:44:29;;;;;;;1.63;0.82;;;9.10;93.40;;;;;;5049234;28;20513;-76
2023/01/18 08:46:56;;;;;;;2.03;0.73;;;9.20;93.30;;;;;;5048902;28;20021;-75
2023/01/18 08:49:22;;;;;;;3.33;0.95;;;9.20;93.20;;;;;;5052119;28;20445;-75
2023/01/18 08:51:48;;;;;;;1.98;0.82;;;9.20;93.10;;;;;;5046041;28;20021;-76
2023/01/18 08:54:13;;;;;;;1.25;0.80;;;9.40;93.10;;;;;;5048320;28;20029;-75
2023/01/18 08:56:39;;;;;;;1.83;0.50;;;9.10;93.40;;;;;;5045629;28;20029;-77
2023/01/18 08:59:08;;;;;;;1.58;0.50;;;7.80;94.40;;;;;;5046779;28;20476;-74
2023/01/18 09:01:34;;;;;;;2.03;0.60;;;7.30;95.10;;;;;;5047427;28;20476;-76
2023/01/18 09:04:00;;;;;;;1.30;0.43;;;6.90;95.80;;;;;;5045645;28;20020;-76
2023/01/18 09:06:30;;;;;;;2.50;0.60;;;6.90;96.00;;;;;;5045720;28;20021;-75
2023/01/18 09:08:57;;;;;;;1.73;0.52;;;7.00;96.00;;;;;;5045582;28;20040;-76
2023/01/18 09:11:22;;;;;;;1.98;0.60;;;7.10;95.80;;;;;;5046490;28;20115;-76
2023/01/18 09:13:52;;;;;;;1.65;0.60;;;7.40;95.60;;;;;;5048472;28;20126;-75
2023/01/18 09:16:18;;;;;;;1.25;0.55;;;7.20;95.70;;;;;;5062424;28;20036;-76
2023/01/18 09:18:44;;;;;;;2.10;0.50;;;7.10;95.70;;;;;;5049087;28;20036;-75
2023/01/18 09:21:12;;;;;;;2.50;0.50;;;7.20;95.70;;;;;;5052275;28;20029;-76
2023/01/18 09:23:39;;;;;;;2.28;0.57;;;7.30;95.50;;;;;;5042126;28;20135;-75
2023/01/18 09:26:09;;;;;;;;;;;7.50;95.50;;;;;;5039314;28;20032;-75
2023/01/18 09:28:35;;;;;;;1.00;0.35;;;7.60;95.10;;;;;;5042958;28;20331;-76
2023/01/18 09:31:07;;;;;;;1.10;0.40;;;7.90;95.10;;;;;;5051621;28;20028;-75
2023/01/18 09:33:34;;;;;;;0.73;0.32;;;7.80;94.90;;;;;;5029993;28;20040;-75
2023/01/18 09:36:06;;;;;;;2.97;0.57;;;7.90;94.90;;;;;;5046953;28;20122;-76
2023/01/18 09:38:32;;;;;;;2.13;0.40;;;8.20;94.80;;;;;;5050492;28;20121;-75
2023/01/18 09:41:00;;;;;;;2.80;0.60;;;8.30;94.10;;;;;;5049189;28;20730;-77
2023/01/18 09:43:31;;;;;;;2.75;0.60;;;8.40;93.90;;;;;;5061235;28;20032;-76
2023/01/18 09:45:58;;;;;;;1.75;0.50;;;8.90;93.50;;;;;;5046620;28;20076;-76
2023/01/18 09:48:37;;;;;;;1.80;0.60;;;9.30;92.80;;;;;;5045814;28;20013;-75
2023/01/18 09:51:22;;;;;;;2.38;0.38;;;9.50;92.10;;;;;;5049862;28;20480;-75
2023/01/18 09:53:54;;;;;;;0.80;0.35;;;9.10;92.50;;;;;;5059645;28;20074;-75
2023/01/18 09:56:54;;;;;;;1.35;0.40;;;8.50;92.80;;;;;;5049883;28;20096;-76
2023/01/18 09:59:27;;;;;;;1.27;0.45;;;8.30;93.40;;;;;;5060905;28;20025;-76
2023/01/18 10:01:53;;;;;;;2.60;0.43;;;8.60;92.90;;;;;;5047262;28;20045;-77
2023/01/18 10:04:41;;;;;;;1.70;0.70;;;9.00;92.40;;;;;;5048812;28;20075;-76
2023/01/18 10:07:14;;;;;;;0.95;0.40;;;9.20;92.20;;;;;;5043441;28;20542;-75
2023/01/18 10:09:48;;;;;;;;;;;8.90;92.40;;;;;;5029405;28;20029;-76
2023/01/18 10:12:44;;;;;;;1.45;0.50;;;9.30;92.00;;;;;;5043982;28;19944;-76
2023/01/18 10:15:20;;;;;;;2.35;0.40;;;8.90;92.50;;;;;;5050231;28;20033;-75
2023/01/18 10:17:49;;;;;;;1.75;0.63;;;8.90;92.50;;;;;;5049984;28;20361;-75
2023/01/18 10:20:27;;;;;;;1.40;0.43;;;8.80;92.70;;;;;;5047812;28;20037;-74
2023/01/18 10:23:20;;;;;;;2.80;0.60;;;8.80;92.60;;;;;;5051842;28;20392;-75
2023/01/18 10:25:58;;;;;;;1.40;0.47;;;8.90;92.70;;;;;;5050312;28;20044;-76
2023/01/18 10:28:45;;;;;;;2.40;0.60;;;8.90;92.70;;;;;;5052621;28;20024;-75
2023/01/18 10:31:37;;;;;;;1.02;0.40;;;9.00;92.50;;;;;;5048148;28;20032;-77
2023/01/18 10:34:13;;;;;;;1.88;0.73;;;9.10;92.60;;;;;;5047997;28;20094;-76
2023/01/18 10:36:44;;;;;;;3.22;0.73;;;9.10;92.50;;;;;;5050920;28;20380;-75
2023/01/18 10:39:26;;;;;;;2.53;0.55;;;9.20;92.40;;;;;;5045600;28;20033;-75
2023/01/18 10:41:57;;;;;;;1.63;0.60;;;9.80;91.60;;;;;;5042890;28;20037;-76
2023/01/18 10:44:23;;;;;;;4.30;0.93;;;10.20;91.30;;;;;;5041958;28;20040;-75
2023/01/18 10:46:55;;;;;;;3.20;0.82;;;10.20;91.00;;;;;;5045954;28;20030;-74
2023/01/18 10:49:42;;;;;;;4.72;0.52;;;10.60;90.80;;;;;;5045022;28;20056;-74
2023/01/18 10:52:20;;;;;;;2.00;0.70;;;9.60;91.10;;;;;;5040896;28;20144;-75
2023/01/18 10:54:54;;;;;;;2.28;0.50;;;9.40;91.60;;;;;;5041742;28;20017;-75
2023/01/18 10:57:25;;;;;;;7.97;0.65;;;9.10;91.80;;;;;;5046723;28;20021;-74
2023/01/18 10:59:52;;;;;;;2.08;0.43;;;9.20;91.80;;;;;;5047362;28;20096;-74
2023/01/18 11:02:26;;;;;;;1.52;0.40;;;9.20;91.60;;;;;;5046984;28;20037;-75
2023/01/18 11:05:24;;;;;;;1.52;0.50;;;9.20;91.80;;;;;;5043616;28;20029;-75
2023/01/18 11:08:19;;;;;;;1.73;0.50;;;9.40;91.70;;;;;;5035972;28;20526;-75
2023/01/18 11:10:45;;;;;;;1.38;0.47;;;9.70;91.20;;;;;;5046947;28;20024;-74
2023/01/18 11:13:36;;;;;;;3.00;1.20;;;9.60;91.10;;;;;;5045266;28;20029;-75
2023/01/18 11:16:16;;;;;;;3.58;0.60;;;10.60;90.50;;;;;;5039171;28;20246;-75
2023/01/18 11:18:56;;;;;;;1.05;0.55;;;11.40;89.60;;;;;;5056008;28;20549;-73
2023/01/18 11:21:23;;;;;;;4.07;0.73;;;11.90;88.40;;;;;;5041305;28;20586;-76
2023/01/18 11:23:50;;;;;;;;;;;12.50;87.30;;;;;;5047372;28;20048;-76
2023/01/18 11:26:20;;;;;;;2.92;0.65;;;12.90;85.50;;;;;;5044189;28;19919;-77
2023/01/18 11:29:00;;;;;;;6.03;0.75;;;13.40;86.20;;;;;;5039152;28;20049;-75
2023/01/18 11:31:49;;;;;;;2.58;0.93;;;12.90;85.00;;;;;;5037191;28;20072;-75
2023/01/18 11:34:26;;;;;;;3.10;0.73;;;13.20;84.30;;;;;;5041223;28;20030;-74
2023/01/18 11:36:53;;;;;;;4.07;0.88;;;13.50;83.30;;;;;;5026082;28;20127;-74
2023/01/18 11:39:25;;;;;;;;;;;13.70;82.30;;;;;;5048417;28;20025;-75
2023/01/18 11:42:09;;;;;;;4.38;1.02;;;14.60;82.00;;;;;;5044468;28;19908;-75
2023/01/18 11:44:38;;;;;;;2.35;0.68;;;15.00;81.00;;;;;;5044484;28;20067;-75
2023/01/18 11:47:19;;;;;;;2.85;1.10;;;15.40;80.60;;;;;;5045163;28;20533;-76
2023/01/18 11:50:00;;;;;;;5.13;1.45;;;16.30;79.50;;;;;;5045634;28;20092;-74
2023/01/18 11:52:42;;;;;;;3.50;0.98;;;16.30;78.70;;;;;;5045682;28;20110;-78
2023/01/18 11:55:30;;;;;;;3.22;1.13;;;17.30;78.70;;;;;;5040011;28;20104;-76
2023/01/18 11:57:57;;;;;;;3.20;1.17;;;16.70;77.90;;;;;;5038667;28;20029;-75
2023/01/18 12:00:27;;;;;;;5.00;1.17;;;16.40;77.80;;;;;;5041563;28;20088;-77
2023/01/18 12:03:30;;;;;;;1.63;0.65;;;15.30;78.20;;;;;;5038930;28;20024;-76
2023/01/18 12:06:13;;;;;;;2.78;0.80;;;14.60;79.80;;;;;;5039370;28;20064;-74
2023/01/18 12:09:09;;;;;;;2.55;0.82;;;13.50;80.10;;;;;;5043072;28;20025;-76
2023/01/18 12:12:00;;;;;;;4.25;1.05;;;12.80;82.40;;;;;;5041104;28;20048;-75
2023/01/18 12:14:47;;;;;;;4.55;0.85;;;12.60;83.60;;;;;;5044355;28;20033;-76
2023/01/18 12:17:42;;;;;;;3.75;1.00;;;12.50;83.30;;;;;;5045262;28;20044;-76
2023/01/18 12:20:21;;;;;;;2.60;0.85;;;12.40;83.80;;;;;;5046722;28;20032;-76
2023/01/18 12:23:11;;;;;;;3.80;1.05;;;11.90;84.00;;;;;;5046916;28;20030;-75
2023/01/18 12:25:42;;;;;;;3.40;1.00;;;11.90;84.50;;;;;;5043693;28;20471;-75
2023/01/18 12:28:31;;;;;;;12.52;1.00;;;11.80;85.10;;;;;;5043634;28;20403;-75
2023/01/18 12:31:08;;;;;;;3.53;0.70;;;11.90;85.40;;;;;;5043099;28;20484;-75
2023/01/18 12:33:46;;;;;;;3.92;0.95;;;11.60;84.30;;;;;;5044799;28;20153;-75
2023/01/18 12:36:35;;;;;;;3.80;0.70;;;11.60;84.80;;;;;;5041355;28;20068;-75
2023/01/18 12:39:34;;;;;;;4.13;1.00;;;11.70;83.90;;;;;;5044633;28;20412;-75
2023/01/18 12:42:10;;;;;;;2.95;0.70;;;11.70;83.70;;;;;;5023752;28;20045;-76
2023/01/18 12:45:17;;;;;;;3.55;0.60;;;11.80;83.30;;;;;;5045476;28;20135;-76
2023/01/18 12:48:01;;;;;;;2.05;0.60;;;11.80;83.00;;;;;;5000036;28;20038;-76
2023/01/18 12:50:33;;;;;;;3.42;0.60;;;11.90;82.90;;;;;;5061375;28;20036;-77
2023/01/18 12:53:06;;;;;;;2.60;0.70;;;12.00;82.90;;;;;;5042687;28;20026;-77
2023/01/18 12:55:33;;;;;;;2.38;0.95;;;11.90;83.00;;;;;;5045058;28;20395;-77
2023/01/18 12:58:01;;;;;;;4.05;0.88;;;11.80;82.60;;;;;;5027692;28;20112;-77
2023/01/18 13:00:38;;;;;;;2.38;0.63;;;11.80;82.90;;;;;;5049475;28;20483;-77
2023/01/18 13:03:14;;;;;;;2.50;0.75;;;11.70;83.70;;;;;;5047261;28;20053;-79
2023/01/18 13:05:56;;;;;;;2.85;0.77;;;11.50;84.30;;;;;;5046490;28;20414;-76
2023/01/18 13:08:43;;;;;;;4.80;1.13;;;11.30;84.10;;;;;;5051560;28;20116;-76
2023/01/18 13:11:20;;;;;;;2.63;0.70;;;11.20;84.50;;;;;;5044541;28;20483;-77
2023/01/18 13:13:48;;;;;;;3.28;0.80;;;11.20;84.80;;;;;;5048965;28;20041;-76
2023/01/18 13:16:38;;;;;;;2.47;0.80;;;11.00;85.50;;;;;;5063270;28;20045;-76
2023/01/18 13:19:23;;;;;;;2.22;0.60;;;11.10;85.60;;;;;;5046186;28;20082;-76
2023/01/18 13:22:42;;;;;;;2.75;0.75;;;11.00;86.30;;;;;;5046427;28;20033;-77
2023/01/18 13:25:17;;;;;;;3.05;0.90;;;10.90;86.60;;;;;;5025007;28;20056;-77
2023/01/18 13:28:04;;;;;;;2.38;0.75;;;11.00;84.50;;;;;;5048497;28;20133;-76
2023/01/18 13:30:46;;;;;;;1.42;0.50;;;10.90;82.40;;;;;;5047555;28;20472;-76
2023/01/18 13:33:13;;;;;;;3.53;0.63;;;10.90;82.40;;;;;;5011874;28;20056;-77
2023/01/18 13:36:01;;;;;;;3.92;0.68;;;11.00;82.80;;;;;;5053752;28;20424;-78
2023/01/18 13:38:28;;;;;;;3.53;0.90;;;11.00;82.00;;;;;;5046841;28;20079;-77
2023/01/18 13:41:00;;;;;;;1.05;0.40;;;11.10;82.40;;;;;;5052610;28;20025;-76
2023/01/18 13:43:34;;;;;;;1.20;0.43;;;11.10;82.00;;;;;;5047051;28;20021;-77
2023/01/18 13:46:06;;;;;;;2.92;0.90;;;10.90;82.20;;;;;;5045639;28;20527;-76
2023/01/18 13:48:45;;;;;;;2.05;0.75;;;11.00;82.40;;;;;;5060568;28;20079;-76
2023/01/18 13:51:39;;;;;;;2.53;0.90;;;11.10;81.50;;;;;;5045823;28;20332;-77
2023/01/18 13:54:10;;;;;;;1.98;0.60;;;11.30;81.40;;;;;;5053566;28;20041;-75